createdAt,value
2022-12-26T00:01:01.287Z,86.37
2022-12-26T00:03:30.516Z,86.25
2022-12-26T00:05:59.521Z,86.24
2022-12-26T00:08:27.099Z,86.33
2022-12-26T00:10:54.672Z,86.49
2022-12-26T00:13:40.431Z,86.58
2022-12-26T00:16:10.089Z,86.19
2022-12-26T00:18:37.736Z,86.22
2022-12-26T00:21:07.160Z,86.30
2022-12-26T00:23:34.942Z,86.15
2022-12-26T00:26:06.483Z,86.47
2022-12-26T00:28:34.251Z,86.45
2022-12-26T00:31:04.825Z,86.78
2022-12-26T00:33:32.499Z,85.92
2022-12-26T00:36:03.165Z,85.42
2022-12-26T00:38:32.541Z,85.54
2022-12-26T00:41:00.104Z,85.54
2022-12-26T00:43:27.751Z,85.34
2022-12-26T00:45:55.424Z,85.72
2022-12-26T00:48:23.004Z,85.67
2022-12-26T00:50:50.636Z,85.86
2022-12-26T00:53:18.694Z,85.84
2022-12-26T00:55:47.797Z,85.62
2022-12-26T00:58:15.392Z,86.02
2022-12-26T01:00:43.113Z,86.00
2022-12-26T01:03:12.178Z,86.06
2022-12-26T01:05:42.065Z,85.70
2022-12-26T01:08:21.428Z,85.85
2022-12-26T01:10:53.203Z,85.79
2022-12-26T01:13:21.788Z,85.48
2022-12-26T01:15:50.540Z,85.70
2022-12-26T01:18:18.166Z,85.76
2022-12-26T01:20:45.699Z,85.70
2022-12-26T01:23:13.251Z,85.85
2022-12-26T01:26:17.690Z,85.53
2022-12-26T01:28:30.284Z,85.45
2022-12-26T01:31:02.591Z,85.28
2022-12-26T01:33:30.538Z,84.94
2022-12-26T01:35:58.489Z,84.60
2022-12-26T01:38:26.022Z,84.62
2022-12-26T01:41:14.385Z,84.64
2022-12-26T01:43:56.004Z,84.35
2022-12-26T01:46:29.360Z,84.39
2022-12-26T01:49:00.617Z,84.71
2022-12-26T01:51:31.592Z,84.78
2022-12-26T01:54:37.245Z,84.87
2022-12-26T01:56:50.230Z,84.80
2022-12-26T01:59:23.311Z,84.49
2022-12-26T02:01:54.484Z,84.22
2022-12-26T02:04:48.647Z,84.07
2022-12-26T02:07:16.498Z,83.86
2022-12-26T02:09:44.147Z,83.82
2022-12-26T02:12:34.529Z,83.81
2022-12-26T02:15:09.851Z,83.93
2022-12-26T02:17:38.696Z,83.77
2022-12-26T02:20:16.500Z,83.98
2022-12-26T02:23:16.022Z,83.79
2022-12-26T02:26:04.251Z,84.36
2022-12-26T02:29:05.265Z,83.86
2022-12-26T02:31:43.456Z,83.45
2022-12-26T02:34:16.947Z,83.86
2022-12-26T02:37:05.880Z,83.97
2022-12-26T02:39:47.690Z,84.03
2022-12-26T02:42:25.559Z,83.94
2022-12-26T02:45:15.534Z,83.82
2022-12-26T02:47:52.239Z,84.08
2022-12-26T02:50:50.158Z,84.27
2022-12-26T02:53:39.533Z,84.33
2022-12-26T02:56:31.171Z,84.78
2022-12-26T02:59:20.268Z,84.98
2022-12-26T03:02:36.634Z,84.18
2022-12-26T03:05:29.390Z,84.86
2022-12-26T03:08:16.408Z,84.39
2022-12-26T03:11:01.857Z,84.13
2022-12-26T03:13:36.696Z,84.56
2022-12-26T03:16:26.522Z,84.48
2022-12-26T03:19:00.634Z,84.67
2022-12-26T03:21:34.046Z,84.35
2022-12-26T03:24:01.718Z,84.42
2022-12-26T03:26:42.326Z,84.36
2022-12-26T03:29:29.959Z,84.18
2022-12-26T03:31:58.547Z,84.01
2022-12-26T03:34:26.125Z,84.17
2022-12-26T03:37:48.380Z,84.27
2022-12-26T03:41:04.118Z,84.21
2022-12-26T03:44:05.061Z,84.05
2022-12-26T03:46:59.457Z,84.27
2022-12-26T03:49:49.238Z,84.50
2022-12-26T03:52:43.028Z,84.24
2022-12-26T03:55:34.372Z,83.86
2022-12-26T03:58:25.947Z,84.05
2022-12-26T04:01:14.890Z,84.08
2022-12-26T04:04:02.381Z,84.21
2022-12-26T04:06:54.110Z,84.10
2022-12-26T04:09:44.707Z,83.79
2022-12-26T04:12:36.377Z,83.60
2022-12-26T04:15:30.817Z,83.92
2022-12-26T04:18:22.839Z,84.06
2022-12-26T04:21:29.305Z,84.03
2022-12-26T04:24:18.716Z,85.13
2022-12-26T04:27:08.534Z,85.72
2022-12-26T04:29:54.226Z,86.11
2022-12-26T04:32:48.535Z,86.75
2022-12-26T04:35:39.239Z,86.81
2022-12-26T04:38:26.323Z,86.12
2022-12-26T04:41:17.925Z,86.38
2022-12-26T04:44:06.245Z,86.48
2022-12-26T04:46:35.263Z,86.88
2022-12-26T04:49:24.848Z,85.87
2022-12-26T04:51:52.713Z,85.77
2022-12-26T04:54:20.301Z,85.88
2022-12-26T04:56:47.824Z,85.55
2022-12-26T04:59:16.382Z,85.56
2022-12-26T05:02:01.909Z,85.82
2022-12-26T05:04:48.528Z,85.84
2022-12-26T05:07:38.355Z,85.87
2022-12-26T05:10:08.771Z,85.51
2022-12-26T05:12:36.468Z,85.82
2022-12-26T05:15:04.174Z,85.97
2022-12-26T05:17:49.118Z,85.92
2022-12-26T05:20:43.945Z,85.86
2022-12-26T05:23:36.542Z,86.01
2022-12-26T05:26:23.303Z,86.30
2022-12-26T05:28:56.892Z,86.22
2022-12-26T05:31:26.264Z,86.13
2022-12-26T05:34:08.392Z,85.77
2022-12-26T05:36:40.220Z,85.27
2022-12-26T05:39:08.915Z,84.54
2022-12-26T05:41:36.980Z,84.19
2022-12-26T05:44:04.942Z,84.69
2022-12-26T05:46:32.593Z,84.44
2022-12-26T05:49:00.278Z,84.06
2022-12-26T05:51:28.335Z,83.68
2022-12-26T05:53:58.241Z,83.94
2022-12-26T05:56:25.783Z,83.34
2022-12-26T05:58:57.793Z,83.58
2022-12-26T06:01:26.724Z,82.96
2022-12-26T06:03:56.475Z,83.06
2022-12-26T06:06:25.858Z,82.86
2022-12-26T06:08:54.707Z,83.10
2022-12-26T06:11:26.471Z,82.83
2022-12-26T06:13:54.958Z,83.01
2022-12-26T06:16:22.644Z,82.92
2022-12-26T06:18:50.439Z,82.82
2022-12-26T06:21:20.083Z,82.99
2022-12-26T06:23:48.542Z,82.91
2022-12-26T06:26:16.645Z,82.78
2022-12-26T06:28:47.441Z,82.51
2022-12-26T06:31:18.063Z,82.47
2022-12-26T06:33:45.729Z,82.84
2022-12-26T06:36:15.023Z,82.99
2022-12-26T06:38:43.485Z,83.09
2022-12-26T06:41:13.967Z,82.96
2022-12-26T06:43:41.798Z,82.73
2022-12-26T06:46:14.860Z,82.71
2022-12-26T06:48:43.666Z,82.95
2022-12-26T06:51:13.263Z,83.02
2022-12-26T06:53:40.912Z,83.46
2022-12-26T06:56:09.649Z,83.67
2022-12-26T06:58:37.379Z,82.91
2022-12-26T07:01:05.980Z,83.01
2022-12-26T07:03:35.273Z,83.02
2022-12-26T07:06:04.933Z,83.51
2022-12-26T07:08:32.490Z,83.54
2022-12-26T07:11:00.172Z,83.44
2022-12-26T07:13:27.736Z,83.61
2022-12-26T07:15:55.346Z,83.25
2022-12-26T07:18:22.848Z,83.48
2022-12-26T07:20:51.674Z,83.73
2022-12-26T07:23:19.323Z,83.97
2022-12-26T07:25:48.186Z,84.34
2022-12-26T07:28:15.967Z,84.09
2022-12-26T07:30:47.845Z,84.16
2022-12-26T07:33:15.702Z,84.18
2022-12-26T07:35:43.611Z,84.17
2022-12-26T07:38:13.457Z,84.56
2022-12-26T07:40:41.361Z,84.00
2022-12-26T07:43:08.885Z,84.70
2022-12-26T07:45:41.835Z,85.81
2022-12-26T07:48:11.017Z,87.75
2022-12-26T07:50:38.584Z,88.80
2022-12-26T07:53:06.100Z,89.63
2022-12-26T07:55:34.903Z,90.73
2022-12-26T07:58:02.434Z,91.79
2022-12-26T08:00:29.982Z,92.92
2022-12-26T08:03:04.681Z,93.89
2022-12-26T08:05:34.566Z,95.15
2022-12-26T08:08:02.234Z,95.88
2022-12-26T08:10:29.873Z,96.41
2022-12-26T08:13:00.050Z,96.85
2022-12-26T08:15:27.785Z,96.90
2022-12-26T08:17:55.416Z,97.58
2022-12-26T08:20:23.834Z,98.19
2022-12-26T08:22:51.393Z,98.55
2022-12-26T08:25:21.832Z,99.22
2022-12-26T08:27:50.911Z,99.21
2022-12-26T08:30:19.774Z,99.28
2022-12-26T08:32:47.326Z,99.09
2022-12-26T08:35:14.886Z,99.83
2022-12-26T08:37:42.393Z,99.51
2022-12-26T08:40:11.219Z,99.72
2022-12-26T08:42:56.243Z,100.00
2022-12-26T08:45:29.257Z,99.64
2022-12-26T08:47:57.915Z,99.40
2022-12-26T08:50:25.412Z,99.22
2022-12-26T08:52:55.298Z,98.96
2022-12-26T08:55:24.220Z,98.66
2022-12-26T08:57:51.776Z,98.67
2022-12-26T09:00:21.970Z,98.63
2022-12-26T09:02:50.923Z,99.32
2022-12-26T09:05:18.590Z,99.09
2022-12-26T09:07:46.571Z,98.90
2022-12-26T09:10:14.134Z,98.49
2022-12-26T09:12:41.659Z,98.26
2022-12-26T09:15:09.760Z,98.42
2022-12-26T09:17:37.359Z,98.70
2022-12-26T09:20:07.692Z,99.61
2022-12-26T09:22:54.396Z,99.70
2022-12-26T09:25:24.278Z,99.50
2022-12-26T09:27:58.751Z,99.26
2022-12-26T09:30:27.499Z,98.24
2022-12-26T09:32:55.415Z,98.00
2022-12-26T09:35:24.271Z,97.90
2022-12-26T09:37:51.793Z,97.14
2022-12-26T09:40:25.033Z,96.97
2022-12-26T09:43:05.546Z,97.00
2022-12-26T09:45:46.368Z,96.58
2022-12-26T09:48:20.667Z,95.88
2022-12-26T09:50:52.946Z,95.40
2022-12-26T09:53:30.021Z,95.60
2022-12-26T09:56:00.573Z,95.96
2022-12-26T09:58:30.881Z,95.29
2022-12-26T10:01:04.151Z,94.69
2022-12-26T10:03:38.625Z,94.43
2022-12-26T10:06:14.546Z,94.86
2022-12-26T10:08:54.184Z,94.62
2022-12-26T10:11:31.169Z,93.80
2022-12-26T10:14:05.206Z,93.50
2022-12-26T10:16:50.186Z,93.75
2022-12-26T10:19:32.800Z,94.11
2022-12-26T10:22:13.472Z,94.17
2022-12-26T10:24:43.633Z,94.46
2022-12-26T10:27:15.076Z,93.78
2022-12-26T10:29:46.936Z,93.44
2022-12-26T10:32:21.673Z,93.44
2022-12-26T10:34:52.815Z,92.73
2022-12-26T10:37:28.486Z,92.62
2022-12-26T10:40:00.044Z,92.66
2022-12-26T10:42:33.828Z,92.75
2022-12-26T10:45:01.857Z,93.35
2022-12-26T10:47:34.541Z,92.82
2022-12-26T10:50:02.188Z,92.24
2022-12-26T10:52:35.022Z,92.10
2022-12-26T10:55:29.471Z,92.44
2022-12-26T10:57:53.266Z,92.25
2022-12-26T11:00:23.578Z,92.94
2022-12-26T11:03:04.622Z,93.16
2022-12-26T11:05:57.461Z,93.41
2022-12-26T11:08:26.478Z,93.05
2022-12-26T11:11:05.577Z,92.67
2022-12-26T11:13:38.434Z,91.71
2022-12-26T11:16:07.935Z,91.61
2022-12-26T11:18:40.303Z,90.96
2022-12-26T11:21:20.675Z,90.22
2022-12-26T11:23:52.314Z,89.66
2022-12-26T11:26:23.763Z,90.05
2022-12-26T11:29:07.444Z,90.12
2022-12-26T11:31:35.364Z,88.81
2022-12-26T11:34:09.227Z,89.60
2022-12-26T11:36:40.372Z,88.84
2022-12-26T11:39:25.123Z,88.52
2022-12-26T11:41:54.003Z,88.47
2022-12-26T11:44:26.894Z,88.44
2022-12-26T11:47:00.042Z,88.21
2022-12-26T11:49:33.063Z,88.32
2022-12-26T11:52:02.853Z,89.68
2022-12-26T11:54:35.967Z,89.67
2022-12-26T11:57:12.350Z,88.85
2022-12-26T11:59:46.035Z,88.67
2022-12-26T12:02:18.567Z,88.32
2022-12-26T12:04:47.635Z,88.65
2022-12-26T12:07:28.001Z,88.62
2022-12-26T12:10:04.120Z,88.72
2022-12-26T12:12:38.423Z,89.07
2022-12-26T12:15:17.453Z,88.59
2022-12-26T12:17:52.780Z,88.36
2022-12-26T12:20:32.102Z,88.56
2022-12-26T12:23:23.234Z,88.22
2022-12-26T12:26:02.253Z,88.00
2022-12-26T12:28:51.656Z,87.75
2022-12-26T12:31:27.977Z,87.69
2022-12-26T12:34:07.117Z,88.78
2022-12-26T12:36:55.968Z,88.85
2022-12-26T12:39:38.319Z,88.71
2022-12-26T12:42:28.897Z,88.45
2022-12-26T12:45:10.431Z,88.34
2022-12-26T12:47:48.080Z,88.29
2022-12-26T12:50:24.748Z,87.94
2022-12-26T12:53:01.724Z,88.45
2022-12-26T12:56:00.139Z,88.54
2022-12-26T12:58:38.264Z,89.50
2022-12-26T13:01:13.187Z,89.73
2022-12-26T13:03:46.576Z,90.26
2022-12-26T13:06:18.979Z,90.55
2022-12-26T13:08:50.152Z,90.80
2022-12-26T13:11:23.498Z,90.99
2022-12-26T13:13:57.111Z,91.02
2022-12-26T13:16:28.357Z,91.33
2022-12-26T13:18:59.846Z,90.85
2022-12-26T13:21:30.120Z,90.25
2022-12-26T13:24:21.196Z,90.52
2022-12-26T13:26:54.383Z,90.17
2022-12-26T13:29:34.651Z,89.48
2022-12-26T13:32:04.452Z,88.20
2022-12-26T13:34:32.741Z,88.32
2022-12-26T13:37:01.336Z,88.03
2022-12-26T13:39:41.287Z,87.21
2022-12-26T13:42:50.694Z,86.60
2022-12-26T13:45:58.332Z,86.03
2022-12-26T13:48:59.634Z,86.08
2022-12-26T13:51:48.603Z,85.71
2022-12-26T13:54:17.069Z,86.48
2022-12-26T13:57:12.567Z,86.78
2022-12-26T13:59:49.889Z,87.07
2022-12-26T14:03:15.999Z,87.76
2022-12-26T14:05:38.031Z,87.81
2022-12-26T14:08:15.542Z,88.24
2022-12-26T14:10:56.791Z,88.02
2022-12-26T14:13:43.342Z,88.61
2022-12-26T14:16:16.952Z,88.85
2022-12-26T14:18:51.602Z,88.23
2022-12-26T14:21:40.809Z,89.55
2022-12-26T14:24:25.776Z,90.89
2022-12-26T14:27:00.872Z,91.88
2022-12-26T14:29:33.650Z,92.90
2022-12-26T14:32:13.941Z,93.99
2022-12-26T14:34:52.641Z,94.81
2022-12-26T14:37:30.988Z,97.37
2022-12-26T14:40:31.065Z,99.73
2022-12-26T14:43:29.016Z,100.00
2022-12-26T14:45:57.592Z,100.00
2022-12-26T14:48:56.679Z,100.00
2022-12-26T14:51:36.677Z,99.39
2022-12-26T14:54:36.389Z,93.28
2022-12-26T14:57:42.003Z,93.54
2022-12-26T15:00:32.715Z,94.64
2022-12-26T15:03:33.694Z,95.64
2022-12-26T15:06:25.895Z,95.16
2022-12-26T15:09:11.446Z,95.91
2022-12-26T15:12:00.332Z,96.19
2022-12-26T15:14:58.330Z,96.14
2022-12-26T15:17:37.473Z,96.23
2022-12-26T15:20:42.406Z,96.12
2022-12-26T15:23:42.543Z,95.89
2022-12-26T15:26:35.210Z,96.05
2022-12-26T15:29:26.644Z,95.40
2022-12-26T15:32:05.273Z,94.93
2022-12-26T15:34:58.465Z,94.46
2022-12-26T15:37:40.845Z,90.48
2022-12-26T15:40:15.721Z,87.63
2022-12-26T15:42:53.364Z,88.12
2022-12-26T15:45:36.382Z,87.93
2022-12-26T15:48:11.271Z,88.13
2022-12-26T15:50:50.386Z,88.93
2022-12-26T15:53:28.684Z,88.44
2022-12-26T15:56:12.951Z,88.80
2022-12-26T15:59:03.062Z,88.49
2022-12-26T16:01:39.461Z,88.25
2022-12-26T16:04:13.583Z,88.01
2022-12-26T16:06:58.265Z,88.60
2022-12-26T16:09:39.914Z,89.14
2022-12-26T16:12:21.966Z,89.41
2022-12-26T16:14:50.280Z,89.89
2022-12-26T16:17:22.778Z,90.20
2022-12-26T16:19:52.414Z,90.53
2022-12-26T16:22:44.322Z,91.29
2022-12-26T16:25:14.062Z,92.66
2022-12-26T16:27:42.979Z,95.32
2022-12-26T16:30:17.341Z,95.47
2022-12-26T16:32:47.329Z,93.91
2022-12-26T16:35:21.297Z,92.88
2022-12-26T16:37:50.766Z,93.15
2022-12-26T16:40:23.804Z,92.02
2022-12-26T16:43:01.450Z,91.92
2022-12-26T16:45:33.909Z,92.11
2022-12-26T16:48:08.595Z,91.48
2022-12-26T16:50:45.957Z,91.75
2022-12-26T16:53:15.475Z,90.39
2022-12-26T16:55:45.722Z,91.20
2022-12-26T16:58:17.338Z,92.08
2022-12-26T17:00:51.518Z,92.19
2022-12-26T17:03:28.995Z,93.23
2022-12-26T17:05:57.155Z,93.00
2022-12-26T17:08:27.130Z,93.75
2022-12-26T17:10:54.892Z,93.52
2022-12-26T17:13:26.746Z,94.05
2022-12-26T17:15:57.838Z,93.95
2022-12-26T17:18:48.027Z,93.24
2022-12-26T17:21:20.188Z,94.52
2022-12-26T17:24:03.275Z,95.93
2022-12-26T17:26:31.669Z,96.50
2022-12-26T17:28:59.309Z,96.44
2022-12-26T17:31:34.719Z,97.41
2022-12-26T17:34:09.051Z,96.25
2022-12-26T17:39:27.491Z,96.37
2022-12-26T17:41:58.236Z,96.75
2022-12-26T17:44:39.777Z,97.53
2022-12-26T17:47:16.944Z,98.95
2022-12-26T17:49:45.949Z,99.37
2022-12-26T17:52:16.485Z,99.46
2022-12-26T17:54:44.550Z,99.57
2022-12-26T17:57:19.288Z,99.53
2022-12-26T17:59:47.087Z,99.47
2022-12-26T18:02:14.915Z,100.00
2022-12-26T18:04:42.759Z,100.00
2022-12-26T18:07:16.457Z,100.00
2022-12-26T18:09:45.055Z,100.00
2022-12-26T18:12:13.510Z,100.00
2022-12-26T18:14:41.343Z,100.00
2022-12-26T18:17:12.052Z,99.96
2022-12-26T18:19:39.737Z,99.59
2022-12-26T18:22:14.461Z,97.67
2022-12-26T18:24:42.713Z,98.84
2022-12-26T18:27:18.245Z,98.47
2022-12-26T18:29:46.267Z,97.62
2022-12-26T18:32:23.352Z,96.97
2022-12-26T18:34:51.069Z,95.29
2022-12-26T18:37:20.085Z,94.50
2022-12-26T18:39:47.665Z,95.12
2022-12-26T18:42:17.040Z,94.59
2022-12-26T18:44:45.251Z,94.62
2022-12-26T18:47:14.167Z,94.92
2022-12-26T18:49:42.231Z,94.79
2022-12-26T18:52:10.503Z,92.99
2022-12-26T18:54:39.610Z,93.94
2022-12-26T18:57:08.355Z,93.66
2022-12-26T18:59:36.046Z,92.91
2022-12-26T19:02:03.663Z,94.24
2022-12-26T19:04:31.385Z,92.02
2022-12-26T19:06:58.923Z,90.18
2022-12-26T19:09:26.579Z,89.95
2022-12-26T19:11:55.482Z,89.64
2022-12-26T19:14:23.175Z,90.72
2022-12-26T19:16:50.788Z,89.41
2022-12-26T19:19:18.375Z,88.88
2022-12-26T19:21:45.880Z,88.83
2022-12-26T19:24:13.425Z,91.15
2022-12-26T19:26:40.982Z,90.77
2022-12-26T19:29:10.430Z,88.47
2022-12-26T19:31:38.216Z,87.96
2022-12-26T19:34:06.284Z,86.94
2022-12-26T19:36:33.886Z,86.33
2022-12-26T19:39:01.464Z,87.63
2022-12-26T19:41:29.145Z,88.61
2022-12-26T19:43:57.331Z,88.04
2022-12-26T19:46:27.382Z,88.47
2022-12-26T19:48:55.621Z,91.11
2022-12-26T19:51:23.629Z,89.88
2022-12-26T19:53:51.454Z,91.59
2022-12-26T19:56:21.271Z,91.11
2022-12-26T19:58:55.915Z,90.37
2022-12-26T20:01:27.529Z,88.34
2022-12-26T20:03:56.071Z,89.50
2022-12-26T20:06:26.335Z,89.17
2022-12-26T20:08:58.132Z,88.43
2022-12-26T20:11:28.851Z,87.16
2022-12-26T20:13:56.850Z,87.12
2022-12-26T20:17:03.956Z,86.78
2022-12-26T20:19:15.133Z,88.52
2022-12-26T20:21:42.770Z,87.68
2022-12-26T20:24:12.376Z,86.51
2022-12-26T20:26:41.114Z,87.72
2022-12-26T20:29:09.248Z,87.07
2022-12-26T20:31:41.179Z,86.57
2022-12-26T20:34:08.931Z,87.08
2022-12-26T20:36:37.992Z,87.84
2022-12-26T20:39:08.032Z,90.95
2022-12-26T20:41:35.886Z,90.03
2022-12-26T20:44:03.533Z,87.25
2022-12-26T20:46:37.270Z,86.95
2022-12-26T20:49:06.317Z,87.99
2022-12-26T20:51:38.144Z,87.43
2022-12-26T20:54:06.901Z,87.78
2022-12-26T20:56:35.019Z,88.92
2022-12-26T20:59:03.171Z,90.43
2022-12-26T21:01:31.291Z,91.56
2022-12-26T21:03:59.181Z,84.76
2022-12-26T21:06:32.136Z,82.36
2022-12-26T21:08:59.822Z,77.86
2022-12-26T21:11:29.323Z,78.18
2022-12-26T21:13:58.945Z,77.49
2022-12-26T21:16:29.171Z,78.17
2022-12-26T21:18:57.814Z,78.24
2022-12-26T21:21:26.920Z,78.07
2022-12-26T21:23:58.523Z,77.65
2022-12-26T21:26:26.823Z,77.34
2022-12-26T21:28:58.120Z,79.21
2022-12-26T21:31:25.670Z,79.72
2022-12-26T21:33:55.815Z,78.54
2022-12-26T21:36:23.746Z,76.91
2022-12-26T21:38:52.809Z,75.50
2022-12-26T21:41:22.285Z,74.31
2022-12-26T21:43:50.145Z,74.35
2022-12-26T21:46:19.999Z,74.34
2022-12-26T21:48:49.955Z,74.91
2022-12-26T21:51:19.059Z,72.82
2022-12-26T21:53:47.754Z,72.30
2022-12-26T21:56:16.147Z,72.32
2022-12-26T21:59:03.538Z,72.28
2022-12-26T22:01:31.757Z,70.53
2022-12-26T22:04:17.213Z,70.66
2022-12-26T22:06:45.055Z,71.25
2022-12-26T22:09:12.876Z,71.23
2022-12-26T22:11:57.981Z,70.03
2022-12-26T22:14:26.875Z,70.68
2022-12-26T22:16:55.242Z,71.25
2022-12-26T22:19:24.601Z,72.13
2022-12-26T22:21:52.271Z,76.45
2022-12-26T22:24:21.651Z,80.22
2022-12-26T22:26:49.710Z,77.98
2022-12-26T22:29:17.465Z,79.16
2022-12-26T22:31:46.393Z,77.94
2022-12-26T22:34:16.290Z,79.59
2022-12-26T22:36:44.274Z,78.30
2022-12-26T22:39:14.257Z,76.01
2022-12-26T22:41:42.117Z,75.41
2022-12-26T22:44:09.846Z,76.53
2022-12-26T22:46:37.736Z,78.93
2022-12-26T22:49:06.969Z,74.93
2022-12-26T22:51:34.854Z,75.33
2022-12-26T22:54:03.132Z,73.81
2022-12-26T22:56:31.379Z,75.47
2022-12-26T22:59:00.942Z,76.03
2022-12-26T23:01:28.734Z,74.60
2022-12-26T23:03:56.899Z,75.59
2022-12-26T23:06:28.599Z,78.11
2022-12-26T23:08:58.735Z,76.65
2022-12-26T23:11:34.465Z,77.75
2022-12-26T23:14:04.732Z,79.39
2022-12-26T23:16:38.018Z,77.07
2022-12-26T23:19:31.065Z,74.54
2022-12-26T23:22:01.774Z,77.05
2022-12-26T23:24:31.822Z,77.21
2022-12-26T23:27:21.900Z,74.52
2022-12-26T23:30:07.586Z,76.79
2022-12-26T23:32:36.042Z,73.96
2022-12-26T23:35:03.964Z,74.94
2022-12-26T23:37:32.851Z,74.05
2022-12-26T23:40:00.519Z,72.72
2022-12-26T23:42:28.180Z,74.49
2022-12-26T23:44:55.837Z,75.37
2022-12-26T23:47:23.359Z,76.02
2022-12-26T23:49:50.974Z,76.17
2022-12-26T23:52:18.527Z,78.15
2022-12-26T23:54:47.469Z,77.03
2022-12-26T23:57:15.040Z,78.12
2022-12-26T23:59:42.536Z,76.55
